sensor_id;sensor_type;location;lat;lon;timestamp;temperature;humidity
52849;DHT22;38714;53.180;5.812;2022-07-23T00:01:27;15.90;99.90
52849;DHT22;38714;53.180;5.812;2022-07-23T00:03:54;15.80;99.90
52849;DHT22;38714;53.180;5.812;2022-07-23T00:06:20;15.80;99.90
52849;DHT22;38714;53.180;5.812;2022-07-23T00:08:46;15.80;99.90
52849;DHT22;38714;53.180;5.812;2022-07-23T00:11:11;15.70;99.90
52849;DHT22;38714;53.180;5.812;2022-07-23T00:13:37;15.70;99.90
52849;DHT22;38714;53.180;5.812;2022-07-23T00:16:03;15.70;99.90
52849;DHT22;38714;53.180;5.812;2022-07-23T00:18:29;15.70;99.90
52849;DHT22;38714;53.180;5.812;2022-07-23T00:20:55;15.70;99.90
52849;DHT22;38714;53.180;5.812;2022-07-23T00:23:20;15.70;99.90
52849;DHT22;38714;53.180;5.812;2022-07-23T00:25:46;15.70;99.90
52849;DHT22;38714;53.180;5.812;2022-07-23T00:28:12;15.60;99.90
52849;DHT22;38714;53.180;5.812;2022-07-23T00:30:38;15.60;99.90
52849;DHT22;38714;53.180;5.812;2022-07-23T00:33:06;15.60;99.90
52849;DHT22;38714;53.180;5.812;2022-07-23T00:35:35;15.60;99.90
52849;DHT22;38714;53.180;5.812;2022-07-23T00:38:02;15.60;99.90
52849;DHT22;38714;53.180;5.812;2022-07-23T00:40:29;15.60;99.90
52849;DHT22;38714;53.180;5.812;2022-07-23T00:42:55;15.50;99.90
52849;DHT22;38714;53.180;5.812;2022-07-23T00:45:21;15.50;99.90
52849;DHT22;38714;53.180;5.812;2022-07-23T00:47:47;15.50;99.90
52849;DHT22;38714;53.180;5.812;2022-07-23T00:50:13;15.50;99.90
52849;DHT22;38714;53.180;5.812;2022-07-23T00:52:40;15.40;99.90
52849;DHT22;38714;53.180;5.812;2022-07-23T00:55:06;15.40;99.90
52849;DHT22;38714;53.180;5.812;2022-07-23T00:57:33;15.40;99.90
52849;DHT22;38714;53.180;5.812;2022-07-23T00:59:59;15.40;99.90
52849;DHT22;38714;53.180;5.812;2022-07-23T01:02:25;15.40;99.90
52849;DHT22;38714;53.180;5.812;2022-07-23T01:04:51;15.30;99.90
52849;DHT22;38714;53.180;5.812;2022-07-23T01:07:18;15.30;99.90
52849;DHT22;38714;53.180;5.812;2022-07-23T01:09:45;15.30;99.90
52849;DHT22;38714;53.180;5.812;2022-07-23T01:12:11;15.30;99.90
52849;DHT22;38714;53.180;5.812;2022-07-23T01:14:36;15.30;99.90
52849;DHT22;38714;53.180;5.812;2022-07-23T01:17:02;15.30;99.90
52849;DHT22;38714;53.180;5.812;2022-07-23T01:19:29;15.30;99.90
52849;DHT22;38714;53.180;5.812;2022-07-23T01:21:56;15.20;99.90
52849;DHT22;38714;53.180;5.812;2022-07-23T01:24:22;15.20;99.90
52849;DHT22;38714;53.180;5.812;2022-07-23T01:26:48;15.20;99.90
52849;DHT22;38714;53.180;5.812;2022-07-23T01:29:14;15.20;99.90
52849;DHT22;38714;53.180;5.812;2022-07-23T01:31:40;15.20;99.90
52849;DHT22;38714;53.180;5.812;2022-07-23T01:34:06;15.20;99.90
52849;DHT22;38714;53.180;5.812;2022-07-23T01:36:33;15.20;99.90
52849;DHT22;38714;53.180;5.812;2022-07-23T01:38:59;15.20;99.90
52849;DHT22;38714;53.180;5.812;2022-07-23T01:41:24;15.10;99.90
52849;DHT22;38714;53.180;5.812;2022-07-23T01:43:50;15.10;99.90
52849;DHT22;38714;53.180;5.812;2022-07-23T01:46:16;15.10;99.90
52849;DHT22;38714;53.180;5.812;2022-07-23T01:48:42;15.10;99.90
52849;DHT22;38714;53.180;5.812;2022-07-23T01:51:08;15.10;99.90
52849;DHT22;38714;53.180;5.812;2022-07-23T01:53:34;15.10;99.90
52849;DHT22;38714;53.180;5.812;2022-07-23T01:56:00;15.10;99.90
52849;DHT22;38714;53.180;5.812;2022-07-23T01:58:26;15.10;99.90
52849;DHT22;38714;53.180;5.812;2022-07-23T02:00:53;15.10;99.90
52849;DHT22;38714;53.180;5.812;2022-07-23T02:03:18;15.10;99.90
52849;DHT22;38714;53.180;5.812;2022-07-23T02:05:44;15.10;99.90
52849;DHT22;38714;53.180;5.812;2022-07-23T02:08:10;15.10;99.90
52849;DHT22;38714;53.180;5.812;2022-07-23T02:10:35;15.10;99.90
52849;DHT22;38714;53.180;5.812;2022-07-23T02:13:01;15.10;99.90
52849;DHT22;38714;53.180;5.812;2022-07-23T02:15:26;15.10;99.90
52849;DHT22;38714;53.180;5.812;2022-07-23T02:17:54;15.10;99.90
52849;DHT22;38714;53.180;5.812;2022-07-23T02:20:20;15.10;99.90
52849;DHT22;38714;53.180;5.812;2022-07-23T02:22:45;15.10;99.90
52849;DHT22;38714;53.180;5.812;2022-07-23T02:25:11;15.10;99.90
52849;DHT22;38714;53.180;5.812;2022-07-23T02:27:37;15.10;99.90
52849;DHT22;38714;53.180;5.812;2022-07-23T02:30:03;15.10;99.90
52849;DHT22;38714;53.180;5.812;2022-07-23T02:32:29;15.00;99.90
52849;DHT22;38714;53.180;5.812;2022-07-23T02:34:55;15.10;99.90
52849;DHT22;38714;53.180;5.812;2022-07-23T02:37:21;15.00;99.90
52849;DHT22;38714;53.180;5.812;2022-07-23T02:39:46;15.00;99.90
52849;DHT22;38714;53.180;5.812;2022-07-23T02:42:14;15.00;99.90
52849;DHT22;38714;53.180;5.812;2022-07-23T02:44:39;15.00;99.90
52849;DHT22;38714;53.180;5.812;2022-07-23T02:47:05;15.00;99.90
52849;DHT22;38714;53.180;5.812;2022-07-23T02:49:31;14.90;99.90
52849;DHT22;38714;53.180;5.812;2022-07-23T02:51:56;14.90;99.90
52849;DHT22;38714;53.180;5.812;2022-07-23T02:54:22;14.90;99.90
52849;DHT22;38714;53.180;5.812;2022-07-23T02:56:47;14.90;99.90
52849;DHT22;38714;53.180;5.812;2022-07-23T02:59:13;14.90;99.90
52849;DHT22;38714;53.180;5.812;2022-07-23T03:01:39;14.80;99.90
52849;DHT22;38714;53.180;5.812;2022-07-23T03:04:04;14.80;99.90
52849;DHT22;38714;53.180;5.812;2022-07-23T03:06:30;14.80;99.90
52849;DHT22;38714;53.180;5.812;2022-07-23T03:08:55;14.70;99.90
52849;DHT22;38714;53.180;5.812;2022-07-23T03:11:21;14.70;99.90
52849;DHT22;38714;53.180;5.812;2022-07-23T03:13:46;14.70;99.90
52849;DHT22;38714;53.180;5.812;2022-07-23T03:16:12;14.70;99.90
52849;DHT22;38714;53.180;5.812;2022-07-23T03:18:38;14.70;99.90
52849;DHT22;38714;53.180;5.812;2022-07-23T03:21:03;14.70;99.90
52849;DHT22;38714;53.180;5.812;2022-07-23T03:23:29;14.70;99.90
52849;DHT22;38714;53.180;5.812;2022-07-23T03:25:54;14.70;99.90
52849;DHT22;38714;53.180;5.812;2022-07-23T03:28:20;14.70;99.90
52849;DHT22;38714;53.180;5.812;2022-07-23T03:30:46;14.70;99.90
52849;DHT22;38714;53.180;5.812;2022-07-23T03:33:13;14.70;99.90
52849;DHT22;38714;53.180;5.812;2022-07-23T03:35:40;14.70;99.90
52849;DHT22;38714;53.180;5.812;2022-07-23T03:38:05;14.70;99.90
52849;DHT22;38714;53.180;5.812;2022-07-23T03:40:31;14.70;99.90
52849;DHT22;38714;53.180;5.812;2022-07-23T03:42:57;14.60;99.90
52849;DHT22;38714;53.180;5.812;2022-07-23T03:45:22;14.60;99.90
52849;DHT22;38714;53.180;5.812;2022-07-23T03:47:48;14.60;99.90
52849;DHT22;38714;53.180;5.812;2022-07-23T03:50:14;14.60;99.90
52849;DHT22;38714;53.180;5.812;2022-07-23T03:52:39;14.50;99.90
52849;DHT22;38714;53.180;5.812;2022-07-23T03:55:06;14.50;99.90
52849;DHT22;38714;53.180;5.812;2022-07-23T03:57:32;14.50;99.90
52849;DHT22;38714;53.180;5.812;2022-07-23T03:59:58;14.50;99.90
52849;DHT22;38714;53.180;5.812;2022-07-23T04:02:23;14.50;99.90
52849;DHT22;38714;53.180;5.812;2022-07-23T04:04:49;14.50;99.90
52849;DHT22;38714;53.180;5.812;2022-07-23T04:07:15;14.50;99.90
52849;DHT22;38714;53.180;5.812;2022-07-23T04:09:42;14.50;99.90
52849;DHT22;38714;53.180;5.812;2022-07-23T04:12:08;14.50;99.90
52849;DHT22;38714;53.180;5.812;2022-07-23T04:14:34;14.60;99.90
52849;DHT22;38714;53.180;5.812;2022-07-23T04:16:59;14.50;99.90
52849;DHT22;38714;53.180;5.812;2022-07-23T04:19:25;14.60;99.90
52849;DHT22;38714;53.180;5.812;2022-07-23T04:21:51;14.50;99.90
52849;DHT22;38714;53.180;5.812;2022-07-23T04:24:17;14.60;99.90
52849;DHT22;38714;53.180;5.812;2022-07-23T04:26:43;14.50;99.90
52849;DHT22;38714;53.180;5.812;2022-07-23T04:29:09;14.50;99.90
52849;DHT22;38714;53.180;5.812;2022-07-23T04:31:35;14.50;99.90
52849;DHT22;38714;53.180;5.812;2022-07-23T04:34:00;14.50;99.90
52849;DHT22;38714;53.180;5.812;2022-07-23T04:36:26;14.50;99.90
52849;DHT22;38714;53.180;5.812;2022-07-23T04:38:51;14.50;99.90
52849;DHT22;38714;53.180;5.812;2022-07-23T04:41:17;14.50;99.90
52849;DHT22;38714;53.180;5.812;2022-07-23T04:43:43;14.50;99.90
52849;DHT22;38714;53.180;5.812;2022-07-23T04:46:08;14.50;99.90
52849;DHT22;38714;53.180;5.812;2022-07-23T04:48:35;14.50;99.90
52849;DHT22;38714;53.180;5.812;2022-07-23T04:51:01;14.50;99.90
52849;DHT22;38714;53.180;5.812;2022-07-23T04:53:27;14.50;99.90
52849;DHT22;38714;53.180;5.812;2022-07-23T04:55:52;14.50;99.90
52849;DHT22;38714;53.180;5.812;2022-07-23T04:58:20;14.50;99.90
52849;DHT22;38714;53.180;5.812;2022-07-23T05:00:46;14.50;99.90
52849;DHT22;38714;53.180;5.812;2022-07-23T05:03:12;14.60;99.90
52849;DHT22;38714;53.180;5.812;2022-07-23T05:05:38;14.60;99.90
52849;DHT22;38714;53.180;5.812;2022-07-23T05:08:04;14.60;99.90
52849;DHT22;38714;53.180;5.812;2022-07-23T05:10:29;14.60;99.90
52849;DHT22;38714;53.180;5.812;2022-07-23T05:12:55;14.60;99.90
52849;DHT22;38714;53.180;5.812;2022-07-23T05:15:21;14.60;99.90
52849;DHT22;38714;53.180;5.812;2022-07-23T05:17:46;14.60;99.90
52849;DHT22;38714;53.180;5.812;2022-07-23T05:20:12;14.60;99.90
52849;DHT22;38714;53.180;5.812;2022-07-23T05:22:39;14.60;99.90
52849;DHT22;38714;53.180;5.812;2022-07-23T05:25:05;14.60;99.90
52849;DHT22;38714;53.180;5.812;2022-07-23T05:27:31;14.70;99.90
52849;DHT22;38714;53.180;5.812;2022-07-23T05:29:57;14.60;99.90
52849;DHT22;38714;53.180;5.812;2022-07-23T05:32:23;14.70;99.90
52849;DHT22;38714;53.180;5.812;2022-07-23T05:34:49;14.70;99.90
52849;DHT22;38714;53.180;5.812;2022-07-23T05:37:15;14.70;99.90
52849;DHT22;38714;53.180;5.812;2022-07-23T05:39:41;14.70;99.90
52849;DHT22;38714;53.180;5.812;2022-07-23T05:42:07;14.80;99.90
52849;DHT22;38714;53.180;5.812;2022-07-23T05:44:33;14.80;99.90
52849;DHT22;38714;53.180;5.812;2022-07-23T05:46:59;14.80;99.90
52849;DHT22;38714;53.180;5.812;2022-07-23T05:49:24;14.90;99.90
52849;DHT22;38714;53.180;5.812;2022-07-23T05:51:50;14.90;99.90
52849;DHT22;38714;53.180;5.812;2022-07-23T05:54:16;14.90;99.90
52849;DHT22;38714;53.180;5.812;2022-07-23T05:56:41;14.90;99.90
52849;DHT22;38714;53.180;5.812;2022-07-23T05:59:07;15.00;99.90
52849;DHT22;38714;53.180;5.812;2022-07-23T06:01:32;15.00;99.90
52849;DHT22;38714;53.180;5.812;2022-07-23T06:03:58;15.10;99.90
52849;DHT22;38714;53.180;5.812;2022-07-23T06:06:23;15.10;99.90
52849;DHT22;38714;53.180;5.812;2022-07-23T06:08:49;15.10;99.90
52849;DHT22;38714;53.180;5.812;2022-07-23T06:11:14;15.20;99.90
52849;DHT22;38714;53.180;5.812;2022-07-23T06:13:40;15.20;99.90
52849;DHT22;38714;53.180;5.812;2022-07-23T06:16:06;15.20;99.90
52849;DHT22;38714;53.180;5.812;2022-07-23T06:18:31;15.30;99.90
52849;DHT22;38714;53.180;5.812;2022-07-23T06:20:57;15.30;99.90
52849;DHT22;38714;53.180;5.812;2022-07-23T06:23:22;15.30;99.90
52849;DHT22;38714;53.180;5.812;2022-07-23T06:25:48;15.40;99.90
52849;DHT22;38714;53.180;5.812;2022-07-23T06:28:13;15.40;99.90
52849;DHT22;38714;53.180;5.812;2022-07-23T06:30:39;15.40;99.90
52849;DHT22;38714;53.180;5.812;2022-07-23T06:33:05;15.40;99.90
52849;DHT22;38714;53.180;5.812;2022-07-23T06:35:30;15.50;99.90
52849;DHT22;38714;53.180;5.812;2022-07-23T06:37:56;15.50;99.90
52849;DHT22;38714;53.180;5.812;2022-07-23T06:40:21;15.50;99.90
52849;DHT22;38714;53.180;5.812;2022-07-23T06:42:47;15.50;99.90
52849;DHT22;38714;53.180;5.812;2022-07-23T06:45:13;15.60;99.90
52849;DHT22;38714;53.180;5.812;2022-07-23T06:47:38;15.60;99.90
52849;DHT22;38714;53.180;5.812;2022-07-23T06:50:06;15.70;99.90
52849;DHT22;38714;53.180;5.812;2022-07-23T06:52:31;15.70;99.90
52849;DHT22;38714;53.180;5.812;2022-07-23T06:54:57;15.70;99.90
52849;DHT22;38714;53.180;5.812;2022-07-23T06:57:22;15.80;99.90
52849;DHT22;38714;53.180;5.812;2022-07-23T06:59:51;15.80;99.90
52849;DHT22;38714;53.180;5.812;2022-07-23T07:02:16;15.90;99.90
52849;DHT22;38714;53.180;5.812;2022-07-23T07:04:42;16.00;99.90
52849;DHT22;38714;53.180;5.812;2022-07-23T07:07:08;15.90;99.90
52849;DHT22;38714;53.180;5.812;2022-07-23T07:09:33;16.00;99.90
52849;DHT22;38714;53.180;5.812;2022-07-23T07:11:59;16.00;99.90
52849;DHT22;38714;53.180;5.812;2022-07-23T07:14:24;16.10;99.90
52849;DHT22;38714;53.180;5.812;2022-07-23T07:16:50;16.10;99.90
52849;DHT22;38714;53.180;5.812;2022-07-23T07:19:16;16.10;99.90
52849;DHT22;38714;53.180;5.812;2022-07-23T07:21:41;16.20;99.90
52849;DHT22;38714;53.180;5.812;2022-07-23T07:24:07;16.20;99.90
52849;DHT22;38714;53.180;5.812;2022-07-23T07:26:33;16.20;99.90
52849;DHT22;38714;53.180;5.812;2022-07-23T07:28:58;16.30;99.90
52849;DHT22;38714;53.180;5.812;2022-07-23T07:31:24;16.30;99.90
52849;DHT22;38714;53.180;5.812;2022-07-23T07:33:50;16.30;99.90
52849;DHT22;38714;53.180;5.812;2022-07-23T07:36:16;16.30;99.90
52849;DHT22;38714;53.180;5.812;2022-07-23T07:38:41;16.30;99.90
52849;DHT22;38714;53.180;5.812;2022-07-23T07:41:07;16.40;99.90
52849;DHT22;38714;53.180;5.812;2022-07-23T07:43:35;16.40;99.90
52849;DHT22;38714;53.180;5.812;2022-07-23T07:46:01;16.40;99.90
52849;DHT22;38714;53.180;5.812;2022-07-23T07:48:27;16.40;99.90
52849;DHT22;38714;53.180;5.812;2022-07-23T07:50:52;16.40;99.90
52849;DHT22;38714;53.180;5.812;2022-07-23T07:53:19;16.40;99.90
52849;DHT22;38714;53.180;5.812;2022-07-23T07:55:44;16.40;99.90
52849;DHT22;38714;53.180;5.812;2022-07-23T07:58:10;16.50;99.90
52849;DHT22;38714;53.180;5.812;2022-07-23T08:00:36;16.50;99.90
52849;DHT22;38714;53.180;5.812;2022-07-23T08:03:02;16.50;99.90
52849;DHT22;38714;53.180;5.812;2022-07-23T08:05:28;16.50;99.90
52849;DHT22;38714;53.180;5.812;2022-07-23T08:07:55;16.50;99.90
52849;DHT22;38714;53.180;5.812;2022-07-23T08:10:21;16.50;99.90
52849;DHT22;38714;53.180;5.812;2022-07-23T08:12:52;16.60;99.90
52849;DHT22;38714;53.180;5.812;2022-07-23T08:15:27;16.60;99.90
52849;DHT22;38714;53.180;5.812;2022-07-23T08:17:54;16.60;99.90
52849;DHT22;38714;53.180;5.812;2022-07-23T08:20:21;16.60;99.90
52849;DHT22;38714;53.180;5.812;2022-07-23T08:25:15;16.60;99.90
52849;DHT22;38714;53.180;5.812;2022-07-23T08:27:41;16.60;99.90
52849;DHT22;38714;53.180;5.812;2022-07-23T08:30:07;16.70;99.90
52849;DHT22;38714;53.180;5.812;2022-07-23T08:32:33;16.70;99.90
52849;DHT22;38714;53.180;5.812;2022-07-23T08:34:58;16.70;99.90
52849;DHT22;38714;53.180;5.812;2022-07-23T08:37:24;16.70;99.90
52849;DHT22;38714;53.180;5.812;2022-07-23T08:39:49;16.70;99.90
52849;DHT22;38714;53.180;5.812;2022-07-23T08:42:15;16.70;99.90
52849;DHT22;38714;53.180;5.812;2022-07-23T08:44:45;16.70;99.90
52849;DHT22;38714;53.180;5.812;2022-07-23T08:47:12;16.70;99.90
52849;DHT22;38714;53.180;5.812;2022-07-23T08:49:38;16.70;99.90
52849;DHT22;38714;53.180;5.812;2022-07-23T08:52:05;16.70;99.90
52849;DHT22;38714;53.180;5.812;2022-07-23T08:54:31;16.70;99.90
52849;DHT22;38714;53.180;5.812;2022-07-23T08:56:58;16.80;99.90
52849;DHT22;38714;53.180;5.812;2022-07-23T08:59:23;16.80;99.90
52849;DHT22;38714;53.180;5.812;2022-07-23T09:01:49;16.80;99.90
52849;DHT22;38714;53.180;5.812;2022-07-23T09:04:14;16.90;99.90
52849;DHT22;38714;53.180;5.812;2022-07-23T09:06:40;16.90;99.90
52849;DHT22;38714;53.180;5.812;2022-07-23T09:09:20;16.90;99.90
52849;DHT22;38714;53.180;5.812;2022-07-23T09:11:46;16.90;99.90
52849;DHT22;38714;53.180;5.812;2022-07-23T09:14:12;16.90;99.90
52849;DHT22;38714;53.180;5.812;2022-07-23T09:16:38;17.00;99.90
52849;DHT22;38714;53.180;5.812;2022-07-23T09:19:06;17.10;99.90
52849;DHT22;38714;53.180;5.812;2022-07-23T09:21:37;17.20;99.90
52849;DHT22;38714;53.180;5.812;2022-07-23T09:24:10;17.20;99.90
52849;DHT22;38714;53.180;5.812;2022-07-23T09:26:41;17.30;99.90
52849;DHT22;38714;53.180;5.812;2022-07-23T09:29:11;17.30;99.90
52849;DHT22;38714;53.180;5.812;2022-07-23T09:31:48;17.30;99.90
52849;DHT22;38714;53.180;5.812;2022-07-23T09:34:35;17.30;99.90
52849;DHT22;38714;53.180;5.812;2022-07-23T09:37:18;17.30;99.90
52849;DHT22;38714;53.180;5.812;2022-07-23T09:39:46;17.40;99.90
52849;DHT22;38714;53.180;5.812;2022-07-23T09:44:45;17.40;99.90
52849;DHT22;38714;53.180;5.812;2022-07-23T09:47:11;17.40;99.90
52849;DHT22;38714;53.180;5.812;2022-07-23T09:49:37;17.40;99.90
52849;DHT22;38714;53.180;5.812;2022-07-23T09:52:03;17.40;99.90
52849;DHT22;38714;53.180;5.812;2022-07-23T09:54:36;17.50;99.90
52849;DHT22;38714;53.180;5.812;2022-07-23T09:57:12;17.50;99.90
52849;DHT22;38714;53.180;5.812;2022-07-23T09:59:43;17.50;99.90
52849;DHT22;38714;53.180;5.812;2022-07-23T10:02:11;17.50;99.90
52849;DHT22;38714;53.180;5.812;2022-07-23T10:04:38;17.50;99.90
52849;DHT22;38714;53.180;5.812;2022-07-23T10:07:06;17.50;99.90
52849;DHT22;38714;53.180;5.812;2022-07-23T10:09:36;17.50;99.90
52849;DHT22;38714;53.180;5.812;2022-07-23T10:12:09;17.60;99.90
52849;DHT22;38714;53.180;5.812;2022-07-23T10:14:53;17.60;99.90
52849;DHT22;38714;53.180;5.812;2022-07-23T10:17:19;17.70;99.90
52849;DHT22;38714;53.180;5.812;2022-07-23T10:19:45;17.70;99.90
52849;DHT22;38714;53.180;5.812;2022-07-23T10:22:26;17.80;99.90
52849;DHT22;38714;53.180;5.812;2022-07-23T10:25:32;17.80;99.90
52849;DHT22;38714;53.180;5.812;2022-07-23T10:30:54;17.90;99.90
52849;DHT22;38714;53.180;5.812;2022-07-23T10:34:08;18.00;99.90
52849;DHT22;38714;53.180;5.812;2022-07-23T10:36:50;18.10;99.90
52849;DHT22;38714;53.180;5.812;2022-07-23T10:39:31;18.10;99.90
52849;DHT22;38714;53.180;5.812;2022-07-23T10:42:15;18.20;99.90
52849;DHT22;38714;53.180;5.812;2022-07-23T10:44:44;18.20;99.90
52849;DHT22;38714;53.180;5.812;2022-07-23T10:47:12;18.20;99.90
52849;DHT22;38714;53.180;5.812;2022-07-23T10:49:49;18.20;99.90
52849;DHT22;38714;53.180;5.812;2022-07-23T10:52:26;18.20;99.90
52849;DHT22;38714;53.180;5.812;2022-07-23T10:54:56;18.20;99.90
52849;DHT22;38714;53.180;5.812;2022-07-23T10:57:27;18.20;99.90
52849;DHT22;38714;53.180;5.812;2022-07-23T11:02:38;18.20;99.90
52849;DHT22;38714;53.180;5.812;2022-07-23T11:05:07;18.20;99.90
52849;DHT22;38714;53.180;5.812;2022-07-23T11:07:34;18.20;99.90
52849;DHT22;38714;53.180;5.812;2022-07-23T11:10:00;18.20;99.90
52849;DHT22;38714;53.180;5.812;2022-07-23T11:15:08;18.30;99.90
52849;DHT22;38714;53.180;5.812;2022-07-23T11:25:14;18.30;99.90
52849;DHT22;38714;53.180;5.812;2022-07-23T11:27:44;18.40;99.90
52849;DHT22;38714;53.180;5.812;2022-07-23T11:35:49;18.50;99.90
52849;DHT22;38714;53.180;5.812;2022-07-23T11:38:17;18.50;99.90
52849;DHT22;38714;53.180;5.812;2022-07-23T11:40:54;18.50;99.90
52849;DHT22;38714;53.180;5.812;2022-07-23T11:43:21;18.50;99.90
52849;DHT22;38714;53.180;5.812;2022-07-23T11:45:50;18.50;99.90
52849;DHT22;38714;53.180;5.812;2022-07-23T11:48:21;18.50;99.90
52849;DHT22;38714;53.180;5.812;2022-07-23T11:50:47;18.50;99.90
52849;DHT22;38714;53.180;5.812;2022-07-23T11:53:13;18.50;99.90
52849;DHT22;38714;53.180;5.812;2022-07-23T11:55:46;18.60;99.90
52849;DHT22;38714;53.180;5.812;2022-07-23T11:58:11;18.60;99.90
52849;DHT22;38714;53.180;5.812;2022-07-23T12:00:40;18.60;99.90
52849;DHT22;38714;53.180;5.812;2022-07-23T12:03:06;18.70;99.90
52849;DHT22;38714;53.180;5.812;2022-07-23T12:05:34;18.70;99.90
52849;DHT22;38714;53.180;5.812;2022-07-23T12:08:01;18.70;99.90
52849;DHT22;38714;53.180;5.812;2022-07-23T12:10:40;18.80;99.90
52849;DHT22;38714;53.180;5.812;2022-07-23T12:13:12;18.80;99.90
52849;DHT22;38714;53.180;5.812;2022-07-23T12:15:40;18.80;99.90
52849;DHT22;38714;53.180;5.812;2022-07-23T12:18:11;18.80;99.90
52849;DHT22;38714;53.180;5.812;2022-07-23T12:20:42;18.80;99.90
52849;DHT22;38714;53.180;5.812;2022-07-23T12:23:09;18.80;99.90
52849;DHT22;38714;53.180;5.812;2022-07-23T12:25:38;18.80;99.90
52849;DHT22;38714;53.180;5.812;2022-07-23T12:28:28;18.80;99.90
52849;DHT22;38714;53.180;5.812;2022-07-23T12:30:55;18.80;99.90
52849;DHT22;38714;53.180;5.812;2022-07-23T12:33:33;18.80;99.90
52849;DHT22;38714;53.180;5.812;2022-07-23T12:36:04;18.80;99.90
52849;DHT22;38714;53.180;5.812;2022-07-23T12:41:06;18.90;99.90
52849;DHT22;38714;53.180;5.812;2022-07-23T12:43:36;18.90;99.90
52849;DHT22;38714;53.180;5.812;2022-07-23T12:46:11;18.90;99.90
52849;DHT22;38714;53.180;5.812;2022-07-23T12:51:26;19.00;99.90
52849;DHT22;38714;53.180;5.812;2022-07-23T12:53:59;19.10;99.90
52849;DHT22;38714;53.180;5.812;2022-07-23T12:56:32;19.10;99.90
52849;DHT22;38714;53.180;5.812;2022-07-23T12:59:09;19.10;99.90
52849;DHT22;38714;53.180;5.812;2022-07-23T13:01:40;19.20;99.90
52849;DHT22;38714;53.180;5.812;2022-07-23T13:06:49;19.20;99.90
52849;DHT22;38714;53.180;5.812;2022-07-23T13:09:17;19.20;99.90
52849;DHT22;38714;53.180;5.812;2022-07-23T13:11:44;19.20;99.90
52849;DHT22;38714;53.180;5.812;2022-07-23T13:14:11;19.20;99.90
52849;DHT22;38714;53.180;5.812;2022-07-23T13:16:38;19.20;99.90
52849;DHT22;38714;53.180;5.812;2022-07-23T13:19:04;19.20;99.90
52849;DHT22;38714;53.180;5.812;2022-07-23T13:21:29;19.20;99.90
52849;DHT22;38714;53.180;5.812;2022-07-23T13:23:56;19.20;99.90
52849;DHT22;38714;53.180;5.812;2022-07-23T13:26:21;19.20;99.90
52849;DHT22;38714;53.180;5.812;2022-07-23T13:28:47;19.20;99.90
52849;DHT22;38714;53.180;5.812;2022-07-23T13:31:13;19.20;99.90
52849;DHT22;38714;53.180;5.812;2022-07-23T13:33:42;19.20;99.90
52849;DHT22;38714;53.180;5.812;2022-07-23T13:36:08;19.20;99.90
52849;DHT22;38714;53.180;5.812;2022-07-23T13:38:34;19.20;99.90
52849;DHT22;38714;53.180;5.812;2022-07-23T13:40:59;19.20;99.90
52849;DHT22;38714;53.180;5.812;2022-07-23T13:43:25;19.20;99.90
52849;DHT22;38714;53.180;5.812;2022-07-23T13:45:52;19.20;99.90
52849;DHT22;38714;53.180;5.812;2022-07-23T13:48:19;19.30;99.90
52849;DHT22;38714;53.180;5.812;2022-07-23T13:50:47;19.30;99.90
52849;DHT22;38714;53.180;5.812;2022-07-23T13:53:21;19.30;99.90
52849;DHT22;38714;53.180;5.812;2022-07-23T13:55:49;19.30;99.90
52849;DHT22;38714;53.180;5.812;2022-07-23T13:58:16;19.40;99.90
52849;DHT22;38714;53.180;5.812;2022-07-23T14:00:45;19.40;99.90
52849;DHT22;38714;53.180;5.812;2022-07-23T14:03:11;19.40;99.90
52849;DHT22;38714;53.180;5.812;2022-07-23T14:05:36;19.40;99.90
52849;DHT22;38714;53.180;5.812;2022-07-23T14:08:03;19.40;99.90
52849;DHT22;38714;53.180;5.812;2022-07-23T14:10:29;19.40;99.90
52849;DHT22;38714;53.180;5.812;2022-07-23T14:12:55;19.40;99.90
52849;DHT22;38714;53.180;5.812;2022-07-23T14:15:23;19.50;99.90
52849;DHT22;38714;53.180;5.812;2022-07-23T14:17:50;19.50;99.90
52849;DHT22;38714;53.180;5.812;2022-07-23T14:20:16;19.50;99.90
52849;DHT22;38714;53.180;5.812;2022-07-23T14:22:42;19.60;99.90
52849;DHT22;38714;53.180;5.812;2022-07-23T14:25:09;19.60;99.90
52849;DHT22;38714;53.180;5.812;2022-07-23T14:27:35;19.60;99.90
52849;DHT22;38714;53.180;5.812;2022-07-23T14:30:04;19.70;99.90
52849;DHT22;38714;53.180;5.812;2022-07-23T14:32:29;19.70;99.90
52849;DHT22;38714;53.180;5.812;2022-07-23T14:34:55;19.70;99.90
52849;DHT22;38714;53.180;5.812;2022-07-23T14:37:21;19.70;99.90
52849;DHT22;38714;53.180;5.812;2022-07-23T14:39:46;19.70;99.90
52849;DHT22;38714;53.180;5.812;2022-07-23T14:42:12;19.80;99.90
52849;DHT22;38714;53.180;5.812;2022-07-23T14:44:38;19.80;99.90
52849;DHT22;38714;53.180;5.812;2022-07-23T14:47:04;19.80;99.90
52849;DHT22;38714;53.180;5.812;2022-07-23T14:49:32;19.80;99.90
52849;DHT22;38714;53.180;5.812;2022-07-23T14:51:57;19.90;99.90
52849;DHT22;38714;53.180;5.812;2022-07-23T14:54:24;19.90;99.90
52849;DHT22;38714;53.180;5.812;2022-07-23T14:56:51;19.90;99.90
52849;DHT22;38714;53.180;5.812;2022-07-23T14:59:17;19.90;99.90
52849;DHT22;38714;53.180;5.812;2022-07-23T15:01:43;19.90;99.90
52849;DHT22;38714;53.180;5.812;2022-07-23T15:04:08;20.00;99.90
52849;DHT22;38714;53.180;5.812;2022-07-23T15:06:34;20.00;99.90
52849;DHT22;38714;53.180;5.812;2022-07-23T15:08:59;20.00;99.90
52849;DHT22;38714;53.180;5.812;2022-07-23T15:11:26;20.00;99.90
52849;DHT22;38714;53.180;5.812;2022-07-23T15:13:52;19.90;99.90
52849;DHT22;38714;53.180;5.812;2022-07-23T15:16:18;19.90;99.90
52849;DHT22;38714;53.180;5.812;2022-07-23T15:18:43;19.90;99.90
52849;DHT22;38714;53.180;5.812;2022-07-23T15:21:09;19.90;99.90
52849;DHT22;38714;53.180;5.812;2022-07-23T15:23:34;19.90;99.90
52849;DHT22;38714;53.180;5.812;2022-07-23T15:26:01;19.90;99.90
52849;DHT22;38714;53.180;5.812;2022-07-23T15:28:26;19.90;99.90
52849;DHT22;38714;53.180;5.812;2022-07-23T15:30:52;20.00;99.90
52849;DHT22;38714;53.180;5.812;2022-07-23T15:33:19;20.00;99.90
52849;DHT22;38714;53.180;5.812;2022-07-23T15:35:45;20.00;99.90
52849;DHT22;38714;53.180;5.812;2022-07-23T15:38:10;20.10;99.90
52849;DHT22;38714;53.180;5.812;2022-07-23T15:40:36;20.10;99.90
52849;DHT22;38714;53.180;5.812;2022-07-23T15:43:02;20.10;99.90
52849;DHT22;38714;53.180;5.812;2022-07-23T15:45:30;20.20;99.90
52849;DHT22;38714;53.180;5.812;2022-07-23T15:47:56;20.20;99.90
52849;DHT22;38714;53.180;5.812;2022-07-23T15:50:22;20.30;99.90
52849;DHT22;38714;53.180;5.812;2022-07-23T15:52:48;20.30;99.90
52849;DHT22;38714;53.180;5.812;2022-07-23T15:55:13;20.30;99.90
52849;DHT22;38714;53.180;5.812;2022-07-23T15:57:39;20.40;99.90
52849;DHT22;38714;53.180;5.812;2022-07-23T16:00:06;20.40;99.90
52849;DHT22;38714;53.180;5.812;2022-07-23T16:02:32;20.40;99.90
52849;DHT22;38714;53.180;5.812;2022-07-23T16:04:57;20.50;99.90